DGTMR EDXH-EDWG
Flight info
| Callsign | DGTMR |
|---|---|
| Flight time | 0h 13m |
| Altitude | 3400 |
| Route | VFR |
| Aircraft | DA42/L-DGV/A |
Departure
| Time | 2026-05-07 16:28 |
|---|---|
| Airport | Helgoland-Düne Airport (EDXH) |
Arrival
| Time | 2026-05-07 16:41 |
|---|---|
| Airport | Wangerooge Airport (EDWG) |
| Time | Latitude | Longitude | Altitude | Speed | Heading |
|---|---|---|---|---|---|
| 2026-05-07 16:23 | 54.18662 | 7.91455 | 4 ft | 0 kts | 129° |
| 2026-05-07 16:25 | 54.18660 | 7.91461 | 4 ft | 4 kts | 113° |
| 2026-05-07 16:25 | 54.18660 | 7.91509 | 6 ft | 5 kts | 127° |
| 2026-05-07 16:26 | 54.18616 | 7.91445 | 6 ft | 15 kts | 236° |
| 2026-05-07 16:26 | 54.18559 | 7.91397 | 7 ft | 10 kts | 146° |
| 2026-05-07 16:26 | 54.18503 | 7.91448 | 10 ft | 8 kts | 182° |
| 2026-05-07 16:26 | 54.18470 | 7.91421 | 11 ft | 5 kts | 194° |
| 2026-05-07 16:27 | 54.18469 | 7.91432 | 11 ft | 0 kts | 26° |
| 2026-05-07 16:27 | 54.18532 | 7.91486 | 9 ft | 39 kts | 28° |
| 2026-05-07 16:27 | 54.18928 | 7.91820 | 118 ft | 72 kts | 23° |
| 2026-05-07 16:27 | 54.19376 | 7.92053 | 510 ft | 70 kts | 18° |
| 2026-05-07 16:28 | 54.19643 | 7.92683 | 771 ft | 81 kts | 90° |
| 2026-05-07 16:28 | 54.19507 | 7.93610 | 1158 ft | 78 kts | 103° |
| 2026-05-07 16:28 | 54.19119 | 7.94382 | 1357 ft | 98 kts | 148° |
| 2026-05-07 16:28 | 54.18423 | 7.94553 | 1672 ft | 104 kts | 183° |
| 2026-05-07 16:29 | 54.17659 | 7.94372 | 1840 ft | 117 kts | 178° |
| 2026-05-07 16:29 | 54.16824 | 7.94363 | 2026 ft | 125 kts | 176° |
| 2026-05-07 16:29 | 54.15923 | 7.94395 | 2124 ft | 131 kts | 178° |
| 2026-05-07 16:29 | 54.14983 | 7.94320 | 2169 ft | 139 kts | 180° |
| 2026-05-07 16:30 | 54.13996 | 7.94245 | 2160 ft | 146 kts | 178° |
| 2026-05-07 16:30 | 54.12971 | 7.94240 | 2206 ft | 147 kts | 176° |
| 2026-05-07 16:30 | 54.11949 | 7.94287 | 2241 ft | 148 kts | 174° |
| 2026-05-07 16:30 | 54.10905 | 7.94341 | 2209 ft | 152 kts | 175° |
| 2026-05-07 16:31 | 54.09846 | 7.94351 | 2211 ft | 152 kts | 174° |
| 2026-05-07 16:31 | 54.08796 | 7.94212 | 2204 ft | 156 kts | 190° |
| 2026-05-07 16:31 | 54.07753 | 7.93702 | 2193 ft | 158 kts | 191° |
| 2026-05-07 16:31 | 54.06663 | 7.93277 | 2068 ft | 162 kts | 186° |
| 2026-05-07 16:32 | 54.05564 | 7.92959 | 2104 ft | 157 kts | 181° |
| 2026-05-07 16:32 | 54.04480 | 7.92859 | 2097 ft | 157 kts | 180° |
| 2026-05-07 16:32 | 54.03374 | 7.92689 | 2032 ft | 161 kts | 181° |
| 2026-05-07 16:32 | 54.02267 | 7.92475 | 2018 ft | 160 kts | 182° |
| 2026-05-07 16:33 | 54.01151 | 7.92212 | 1979 ft | 162 kts | 187° |
| 2026-05-07 16:33 | 54.00059 | 7.91753 | 1982 ft | 162 kts | 192° |
| 2026-05-07 16:33 | 53.98976 | 7.91165 | 1935 ft | 163 kts | 194° |
| 2026-05-07 16:33 | 53.97889 | 7.90576 | 1895 ft | 165 kts | 192° |
| 2026-05-07 16:34 | 53.97155 | 7.90237 | 1884 ft | 162 kts | 190° |
| 2026-05-07 16:34 | 53.96056 | 7.89797 | 1729 ft | 166 kts | 187° |
| 2026-05-07 16:34 | 53.94928 | 7.89379 | 1622 ft | 165 kts | 189° |
| 2026-05-07 16:34 | 53.93809 | 7.88961 | 1550 ft | 164 kts | 189° |
| 2026-05-07 16:35 | 53.92711 | 7.88476 | 1537 ft | 161 kts | 192° |
| 2026-05-07 16:35 | 53.91647 | 7.87971 | 1595 ft | 156 kts | 192° |
| 2026-05-07 16:35 | 53.90596 | 7.87506 | 1605 ft | 156 kts | 191° |
| 2026-05-07 16:35 | 53.89192 | 7.86890 | 1599 ft | 158 kts | 191° |
| 2026-05-07 16:36 | 53.88472 | 7.86590 | 1597 ft | 158 kts | 191° |
| 2026-05-07 16:36 | 53.87403 | 7.86120 | 1584 ft | 159 kts | 192° |
| 2026-05-07 16:36 | 53.86357 | 7.85610 | 1594 ft | 159 kts | 191° |
| 2026-05-07 16:36 | 53.85292 | 7.85132 | 1589 ft | 158 kts | 190° |
| 2026-05-07 16:37 | 53.84241 | 7.84702 | 1568 ft | 151 kts | 189° |
| 2026-05-07 16:37 | 53.83263 | 7.84272 | 1578 ft | 139 kts | 190° |
| 2026-05-07 16:37 | 53.82351 | 7.83964 | 1587 ft | 130 kts | 185° |
| 2026-05-07 16:37 | 53.81463 | 7.83769 | 1556 ft | 126 kts | 182° |
| 2026-05-07 16:38 | 53.80607 | 7.83675 | 1517 ft | 121 kts | 177° |
| 2026-05-07 16:38 | 53.79810 | 7.83663 | 1524 ft | 109 kts | 174° |
| 2026-05-07 16:38 | 53.79054 | 7.83708 | 1429 ft | 108 kts | 166° |
| 2026-05-07 16:38 | 53.78340 | 7.84011 | 1305 ft | 110 kts | 159° |
| 2026-05-07 16:39 | 53.77635 | 7.84340 | 1178 ft | 97 kts | 148° |
| 2026-05-07 16:39 | 53.77167 | 7.85076 | 975 ft | 94 kts | 113° |
| 2026-05-07 16:39 | 53.76901 | 7.86179 | 662 ft | 102 kts | 97° |
| 2026-05-07 16:39 | 53.76984 | 7.87191 | 661 ft | 85 kts | 53° |
| 2026-05-07 16:40 | 53.77283 | 7.88032 | 617 ft | 84 kts | 68° |
| 2026-05-07 16:40 | 53.77509 | 7.88978 | 521 ft | 89 kts | 49° |
| 2026-05-07 16:40 | 53.77942 | 7.89649 | 434 ft | 78 kts | 35° |
| 2026-05-07 16:40 | 53.78280 | 7.90331 | 288 ft | 76 kts | 67° |
| 2026-05-07 16:41 | 53.78282 | 7.91198 | 41 ft | 71 kts | 83° |
| 2026-05-07 16:41 | 53.78262 | 7.91825 | -4 ft | 33 kts | 92° |
| 2026-05-07 16:41 | 53.78250 | 7.92068 | -4 ft | 18 kts | 95° |
| 2026-05-07 16:41 | 53.78295 | 7.92172 | -1 ft | 8 kts | 336° |
| 2026-05-07 16:42 | 53.78312 | 7.91997 | -4 ft | 21 kts | 278° |
| 2026-05-07 16:42 | 53.78322 | 7.91777 | -2 ft | 17 kts | 276° |
| 2026-05-07 16:42 | 53.78328 | 7.91590 | -1 ft | 16 kts | 274° |
| 2026-05-07 16:42 | 53.78362 | 7.91431 | 2 ft | 13 kts | 305° |
| 2026-05-07 16:43 | 53.78423 | 7.91286 | 4 ft | 20 kts | 306° |
| 2026-05-07 16:43 | 53.78503 | 7.91098 | 5 ft | 16 kts | 312° |
| 2026-05-07 16:43 | 53.78575 | 7.91049 | 2 ft | 10 kts | 25° |
| 2026-05-07 16:43 | 53.78624 | 7.91095 | 2 ft | 9 kts | 3° |
| 2026-05-07 16:44 | 53.78688 | 7.91064 | 2 ft | 11 kts | 322° |
| 2026-05-07 16:44 | 53.78694 | 7.91036 | 2 ft | 0 kts | 236° |